sensor_id;sensor_type;location;lat;lon;timestamp;P1;durP1;ratioP1;P2;durP2;ratioP2
9880;SDS011;4979;51.014;6.678;2022-12-24T00:00:21;18.77;;;3.65;;
9880;SDS011;4979;51.014;6.678;2022-12-24T00:02:48;23.52;;;4.30;;
9880;SDS011;4979;51.014;6.678;2022-12-24T00:05:14;17.65;;;3.47;;
9880;SDS011;4979;51.014;6.678;2022-12-24T00:07:39;11.40;;;3.17;;
9880;SDS011;4979;51.014;6.678;2022-12-24T00:10:06;15.05;;;3.45;;
9880;SDS011;4979;51.014;6.678;2022-12-24T00:12:33;17.08;;;4.20;;
9880;SDS011;4979;51.014;6.678;2022-12-24T00:14:58;14.45;;;3.05;;
9880;SDS011;4979;51.014;6.678;2022-12-24T00:17:24;23.35;;;4.05;;
9880;SDS011;4979;51.014;6.678;2022-12-24T00:19:49;21.08;;;4.35;;
9880;SDS011;4979;51.014;6.678;2022-12-24T00:22:15;15.13;;;3.85;;
9880;SDS011;4979;51.014;6.678;2022-12-24T00:24:40;23.25;;;3.63;;
9880;SDS011;4979;51.014;6.678;2022-12-24T00:27:06;23.90;;;4.07;;
9880;SDS011;4979;51.014;6.678;2022-12-24T00:29:32;27.40;;;4.18;;
9880;SDS011;4979;51.014;6.678;2022-12-24T00:31:57;21.52;;;3.78;;
9880;SDS011;4979;51.014;6.678;2022-12-24T00:34:23;20.85;;;4.03;;
9880;SDS011;4979;51.014;6.678;2022-12-24T00:36:49;22.95;;;3.80;;
9880;SDS011;4979;51.014;6.678;2022-12-24T00:39:15;23.42;;;4.45;;
9880;SDS011;4979;51.014;6.678;2022-12-24T00:41:40;19.65;;;4.72;;
9880;SDS011;4979;51.014;6.678;2022-12-24T00:44:06;27.80;;;3.88;;
9880;SDS011;4979;51.014;6.678;2022-12-24T00:46:34;25.70;;;4.55;;
9880;SDS011;4979;51.014;6.678;2022-12-24T00:49:01;24.80;;;3.70;;
9880;SDS011;4979;51.014;6.678;2022-12-24T00:51:27;18.65;;;3.65;;
9880;SDS011;4979;51.014;6.678;2022-12-24T00:53:53;25.30;;;4.70;;
9880;SDS011;4979;51.014;6.678;2022-12-24T00:56:18;23.15;;;4.20;;
9880;SDS011;4979;51.014;6.678;2022-12-24T00:58:45;23.30;;;3.78;;
9880;SDS011;4979;51.014;6.678;2022-12-24T01:01:10;17.75;;;3.85;;
9880;SDS011;4979;51.014;6.678;2022-12-24T01:03:36;19.80;;;3.70;;
9880;SDS011;4979;51.014;6.678;2022-12-24T01:08:28;28.00;;;4.95;;
9880;SDS011;4979;51.014;6.678;2022-12-24T01:10:55;14.75;;;3.33;;
9880;SDS011;4979;51.014;6.678;2022-12-24T01:13:21;20.67;;;4.53;;
9880;SDS011;4979;51.014;6.678;2022-12-24T01:15:47;32.50;;;4.97;;
9880;SDS011;4979;51.014;6.678;2022-12-24T01:18:12;10.02;;;3.20;;
9880;SDS011;4979;51.014;6.678;2022-12-24T01:20:38;12.85;;;3.13;;
9880;SDS011;4979;51.014;6.678;2022-12-24T01:23:04;18.65;;;3.33;;
9880;SDS011;4979;51.014;6.678;2022-12-24T01:25:29;10.48;;;2.92;;
9880;SDS011;4979;51.014;6.678;2022-12-24T01:27:55;15.00;;;3.78;;
9880;SDS011;4979;51.014;6.678;2022-12-24T01:30:20;11.68;;;2.97;;
9880;SDS011;4979;51.014;6.678;2022-12-24T01:32:46;15.48;;;4.05;;
9880;SDS011;4979;51.014;6.678;2022-12-24T01:35:11;13.85;;;3.38;;
9880;SDS011;4979;51.014;6.678;2022-12-24T01:37:37;18.10;;;3.28;;
9880;SDS011;4979;51.014;6.678;2022-12-24T01:40:04;15.88;;;3.67;;
9880;SDS011;4979;51.014;6.678;2022-12-24T01:42:50;19.52;;;3.80;;
9880;SDS011;4979;51.014;6.678;2022-12-24T01:48:01;11.05;;;3.00;;
9880;SDS011;4979;51.014;6.678;2022-12-24T01:50:27;18.70;;;3.50;;
9880;SDS011;4979;51.014;6.678;2022-12-24T01:52:53;21.80;;;4.90;;
9880;SDS011;4979;51.014;6.678;2022-12-24T01:55:18;17.95;;;3.70;;
9880;SDS011;4979;51.014;6.678;2022-12-24T01:57:51;20.80;;;3.97;;
9880;SDS011;4979;51.014;6.678;2022-12-24T02:00:20;13.88;;;2.72;;
9880;SDS011;4979;51.014;6.678;2022-12-24T02:02:46;17.95;;;3.60;;
9880;SDS011;4979;51.014;6.678;2022-12-24T02:05:20;15.13;;;3.50;;
9880;SDS011;4979;51.014;6.678;2022-12-24T02:07:54;21.20;;;4.03;;
9880;SDS011;4979;51.014;6.678;2022-12-24T02:10:21;14.10;;;4.55;;
9880;SDS011;4979;51.014;6.678;2022-12-24T02:12:47;21.75;;;4.35;;
9880;SDS011;4979;51.014;6.678;2022-12-24T02:15:14;19.42;;;3.50;;
9880;SDS011;4979;51.014;6.678;2022-12-24T02:29:24;22.02;;;3.75;;
9880;SDS011;4979;51.014;6.678;2022-12-24T02:32:11;18.20;;;3.65;;
9880;SDS011;4979;51.014;6.678;2022-12-24T02:34:49;23.42;;;4.63;;
9880;SDS011;4979;51.014;6.678;2022-12-24T02:37:36;21.83;;;3.72;;
9880;SDS011;4979;51.014;6.678;2022-12-24T02:40:15;21.50;;;3.85;;
9880;SDS011;4979;51.014;6.678;2022-12-24T02:42:50;32.30;;;4.50;;
9880;SDS011;4979;51.014;6.678;2022-12-24T02:45:21;24.67;;;3.75;;
9880;SDS011;4979;51.014;6.678;2022-12-24T02:47:51;31.88;;;4.53;;
9880;SDS011;4979;51.014;6.678;2022-12-24T02:50:18;19.15;;;3.47;;
9880;SDS011;4979;51.014;6.678;2022-12-24T02:52:45;22.00;;;3.67;;
9880;SDS011;4979;51.014;6.678;2022-12-24T02:55:16;16.98;;;3.60;;
9880;SDS011;4979;51.014;6.678;2022-12-24T03:11:37;11.48;;;3.10;;
9880;SDS011;4979;51.014;6.678;2022-12-24T03:14:08;14.10;;;3.20;;
9880;SDS011;4979;51.014;6.678;2022-12-24T03:16:34;13.50;;;3.80;;
9880;SDS011;4979;51.014;6.678;2022-12-24T03:19:00;15.85;;;3.10;;
9880;SDS011;4979;51.014;6.678;2022-12-24T03:21:31;11.38;;;2.63;;
9880;SDS011;4979;51.014;6.678;2022-12-24T03:23:59;10.48;;;2.33;;
9880;SDS011;4979;51.014;6.678;2022-12-24T03:26:26;5.25;;;2.15;;
9880;SDS011;4979;51.014;6.678;2022-12-24T03:28:53;11.30;;;2.45;;
9880;SDS011;4979;51.014;6.678;2022-12-24T03:31:19;9.00;;;2.50;;
9880;SDS011;4979;51.014;6.678;2022-12-24T03:33:45;10.15;;;2.60;;
9880;SDS011;4979;51.014;6.678;2022-12-24T03:36:12;7.80;;;2.60;;
9880;SDS011;4979;51.014;6.678;2022-12-24T03:38:38;10.93;;;2.45;;
9880;SDS011;4979;51.014;6.678;2022-12-24T03:41:03;10.23;;;2.70;;
9880;SDS011;4979;51.014;6.678;2022-12-24T03:43:29;6.50;;;2.28;;
9880;SDS011;4979;51.014;6.678;2022-12-24T03:45:55;9.25;;;2.13;;
9880;SDS011;4979;51.014;6.678;2022-12-24T03:48:20;9.73;;;1.67;;
9880;SDS011;4979;51.014;6.678;2022-12-24T03:50:46;11.18;;;2.50;;
9880;SDS011;4979;51.014;6.678;2022-12-24T03:53:12;10.20;;;2.25;;
9880;SDS011;4979;51.014;6.678;2022-12-24T03:55:38;6.00;;;1.67;;
9880;SDS011;4979;51.014;6.678;2022-12-24T03:58:03;11.30;;;2.10;;
9880;SDS011;4979;51.014;6.678;2022-12-24T04:00:29;8.30;;;1.88;;
9880;SDS011;4979;51.014;6.678;2022-12-24T04:02:55;8.57;;;1.90;;
9880;SDS011;4979;51.014;6.678;2022-12-24T04:05:20;10.35;;;1.92;;
9880;SDS011;4979;51.014;6.678;2022-12-24T04:07:46;16.25;;;2.70;;
9880;SDS011;4979;51.014;6.678;2022-12-24T04:10:12;7.07;;;1.80;;
9880;SDS011;4979;51.014;6.678;2022-12-24T04:12:39;10.57;;;2.05;;
9880;SDS011;4979;51.014;6.678;2022-12-24T04:15:04;8.38;;;1.73;;
9880;SDS011;4979;51.014;6.678;2022-12-24T04:17:31;9.65;;;2.25;;
9880;SDS011;4979;51.014;6.678;2022-12-24T04:19:57;10.20;;;2.15;;
9880;SDS011;4979;51.014;6.678;2022-12-24T04:22:22;7.90;;;2.08;;
9880;SDS011;4979;51.014;6.678;2022-12-24T04:24:48;6.32;;;1.58;;
9880;SDS011;4979;51.014;6.678;2022-12-24T04:27:14;10.07;;;2.22;;
9880;SDS011;4979;51.014;6.678;2022-12-24T04:29:40;13.57;;;3.03;;
9880;SDS011;4979;51.014;6.678;2022-12-24T04:32:05;8.82;;;1.73;;
9880;SDS011;4979;51.014;6.678;2022-12-24T04:34:31;9.32;;;2.10;;
9880;SDS011;4979;51.014;6.678;2022-12-24T04:36:56;13.07;;;2.35;;
9880;SDS011;4979;51.014;6.678;2022-12-24T04:39:22;8.65;;;2.38;;
9880;SDS011;4979;51.014;6.678;2022-12-24T04:41:47;9.88;;;2.25;;
9880;SDS011;4979;51.014;6.678;2022-12-24T04:44:13;11.43;;;2.80;;
9880;SDS011;4979;51.014;6.678;2022-12-24T04:46:39;5.45;;;2.20;;
9880;SDS011;4979;51.014;6.678;2022-12-24T04:49:06;10.23;;;2.42;;
9880;SDS011;4979;51.014;6.678;2022-12-24T04:51:32;10.38;;;2.25;;
9880;SDS011;4979;51.014;6.678;2022-12-24T04:53:58;8.57;;;2.15;;
9880;SDS011;4979;51.014;6.678;2022-12-24T04:56:24;8.63;;;2.10;;
9880;SDS011;4979;51.014;6.678;2022-12-24T04:58:52;10.10;;;2.45;;
9880;SDS011;4979;51.014;6.678;2022-12-24T05:01:19;9.98;;;2.17;;
9880;SDS011;4979;51.014;6.678;2022-12-24T05:03:47;9.55;;;2.40;;
9880;SDS011;4979;51.014;6.678;2022-12-24T05:06:14;15.32;;;2.65;;
9880;SDS011;4979;51.014;6.678;2022-12-24T05:08:42;5.88;;;2.17;;
9880;SDS011;4979;51.014;6.678;2022-12-24T05:11:08;10.55;;;2.50;;
9880;SDS011;4979;51.014;6.678;2022-12-24T05:13:35;11.23;;;2.25;;
9880;SDS011;4979;51.014;6.678;2022-12-24T05:16:00;22.08;;;3.67;;
9880;SDS011;4979;51.014;6.678;2022-12-24T05:18:26;17.38;;;2.97;;
9880;SDS011;4979;51.014;6.678;2022-12-24T05:20:52;18.33;;;3.58;;
9880;SDS011;4979;51.014;6.678;2022-12-24T05:23:18;12.48;;;2.50;;
9880;SDS011;4979;51.014;6.678;2022-12-24T05:26:04;9.25;;;2.40;;
9880;SDS011;4979;51.014;6.678;2022-12-24T05:28:51;11.32;;;2.85;;
9880;SDS011;4979;51.014;6.678;2022-12-24T05:31:18;13.18;;;2.85;;
9880;SDS011;4979;51.014;6.678;2022-12-24T05:33:44;10.70;;;3.38;;
9880;SDS011;4979;51.014;6.678;2022-12-24T05:36:10;11.73;;;3.35;;
9880;SDS011;4979;51.014;6.678;2022-12-24T05:38:36;13.80;;;2.90;;
9880;SDS011;4979;51.014;6.678;2022-12-24T05:41:02;15.73;;;4.20;;
9880;SDS011;4979;51.014;6.678;2022-12-24T05:43:28;7.57;;;2.88;;
9880;SDS011;4979;51.014;6.678;2022-12-24T05:45:57;10.63;;;3.17;;
9880;SDS011;4979;51.014;6.678;2022-12-24T05:48:26;16.13;;;3.17;;
9880;SDS011;4979;51.014;6.678;2022-12-24T05:50:52;16.90;;;3.15;;
9880;SDS011;4979;51.014;6.678;2022-12-24T05:53:18;14.75;;;3.72;;
9880;SDS011;4979;51.014;6.678;2022-12-24T05:55:44;18.17;;;3.85;;
9880;SDS011;4979;51.014;6.678;2022-12-24T05:58:09;12.80;;;3.58;;
9880;SDS011;4979;51.014;6.678;2022-12-24T06:00:35;14.00;;;3.30;;
9880;SDS011;4979;51.014;6.678;2022-12-24T06:03:00;13.55;;;3.80;;
9880;SDS011;4979;51.014;6.678;2022-12-24T06:05:26;11.57;;;3.25;;
9880;SDS011;4979;51.014;6.678;2022-12-24T06:07:52;16.58;;;4.30;;
9880;SDS011;4979;51.014;6.678;2022-12-24T06:10:17;16.58;;;3.40;;
9880;SDS011;4979;51.014;6.678;2022-12-24T06:12:43;14.65;;;3.60;;
9880;SDS011;4979;51.014;6.678;2022-12-24T06:15:09;13.98;;;3.28;;
9880;SDS011;4979;51.014;6.678;2022-12-24T06:17:35;20.20;;;4.75;;
9880;SDS011;4979;51.014;6.678;2022-12-24T06:20:01;15.82;;;3.45;;
9880;SDS011;4979;51.014;6.678;2022-12-24T06:22:26;18.48;;;3.92;;
9880;SDS011;4979;51.014;6.678;2022-12-24T06:24:52;19.45;;;3.67;;
9880;SDS011;4979;51.014;6.678;2022-12-24T06:27:17;17.88;;;4.88;;
9880;SDS011;4979;51.014;6.678;2022-12-24T06:29:43;20.17;;;3.85;;
9880;SDS011;4979;51.014;6.678;2022-12-24T06:32:08;19.77;;;4.25;;
9880;SDS011;4979;51.014;6.678;2022-12-24T06:34:34;20.58;;;4.60;;
9880;SDS011;4979;51.014;6.678;2022-12-24T06:37:00;14.73;;;3.72;;
9880;SDS011;4979;51.014;6.678;2022-12-24T06:39:25;23.52;;;4.38;;
9880;SDS011;4979;51.014;6.678;2022-12-24T06:41:51;19.80;;;4.18;;
9880;SDS011;4979;51.014;6.678;2022-12-24T06:44:17;16.17;;;3.60;;
9880;SDS011;4979;51.014;6.678;2022-12-24T06:46:42;26.10;;;4.22;;
9880;SDS011;4979;51.014;6.678;2022-12-24T06:49:08;24.20;;;4.85;;
9880;SDS011;4979;51.014;6.678;2022-12-24T06:51:33;25.70;;;4.18;;
9880;SDS011;4979;51.014;6.678;2022-12-24T06:53:59;20.63;;;3.83;;
9880;SDS011;4979;51.014;6.678;2022-12-24T06:56:24;20.48;;;3.40;;
9880;SDS011;4979;51.014;6.678;2022-12-24T06:58:50;20.83;;;4.10;;
9880;SDS011;4979;51.014;6.678;2022-12-24T07:01:16;22.85;;;4.22;;
9880;SDS011;4979;51.014;6.678;2022-12-24T07:03:43;21.23;;;3.72;;
9880;SDS011;4979;51.014;6.678;2022-12-24T07:06:20;26.33;;;5.65;;
9880;SDS011;4979;51.014;6.678;2022-12-24T07:08:49;16.02;;;3.83;;
9880;SDS011;4979;51.014;6.678;2022-12-24T07:11:15;14.55;;;3.13;;
9880;SDS011;4979;51.014;6.678;2022-12-24T07:13:41;21.27;;;3.80;;
9880;SDS011;4979;51.014;6.678;2022-12-24T07:16:07;22.00;;;4.18;;
9880;SDS011;4979;51.014;6.678;2022-12-24T07:18:33;32.30;;;4.47;;
9880;SDS011;4979;51.014;6.678;2022-12-24T07:20:58;18.38;;;4.75;;
9880;SDS011;4979;51.014;6.678;2022-12-24T07:23:24;20.48;;;4.20;;
9880;SDS011;4979;51.014;6.678;2022-12-24T07:25:50;23.23;;;4.32;;
9880;SDS011;4979;51.014;6.678;2022-12-24T07:28:16;21.85;;;4.47;;
9880;SDS011;4979;51.014;6.678;2022-12-24T07:30:41;17.80;;;3.90;;
9880;SDS011;4979;51.014;6.678;2022-12-24T07:33:07;17.20;;;4.05;;
9880;SDS011;4979;51.014;6.678;2022-12-24T07:35:33;22.20;;;4.95;;
9880;SDS011;4979;51.014;6.678;2022-12-24T07:37:59;23.50;;;4.97;;
9880;SDS011;4979;51.014;6.678;2022-12-24T07:40:26;27.55;;;4.53;;
9880;SDS011;4979;51.014;6.678;2022-12-24T07:42:51;15.98;;;4.05;;
9880;SDS011;4979;51.014;6.678;2022-12-24T07:45:17;30.02;;;4.60;;
9880;SDS011;4979;51.014;6.678;2022-12-24T07:47:42;20.38;;;4.15;;
9880;SDS011;4979;51.014;6.678;2022-12-24T07:50:08;18.90;;;3.35;;
9880;SDS011;4979;51.014;6.678;2022-12-24T07:52:34;21.08;;;4.15;;
9880;SDS011;4979;51.014;6.678;2022-12-24T07:55:00;21.15;;;4.53;;
9880;SDS011;4979;51.014;6.678;2022-12-24T07:57:25;20.42;;;4.25;;
9880;SDS011;4979;51.014;6.678;2022-12-24T07:59:51;22.23;;;4.68;;
9880;SDS011;4979;51.014;6.678;2022-12-24T08:02:16;23.75;;;4.85;;
9880;SDS011;4979;51.014;6.678;2022-12-24T08:04:42;23.27;;;4.13;;
9880;SDS011;4979;51.014;6.678;2022-12-24T08:07:07;30.48;;;5.22;;
9880;SDS011;4979;51.014;6.678;2022-12-24T08:09:33;23.50;;;5.03;;
9880;SDS011;4979;51.014;6.678;2022-12-24T08:12:00;21.08;;;5.13;;
9880;SDS011;4979;51.014;6.678;2022-12-24T08:14:27;14.20;;;3.80;;
9880;SDS011;4979;51.014;6.678;2022-12-24T08:16:53;14.32;;;3.75;;
9880;SDS011;4979;51.014;6.678;2022-12-24T08:19:19;24.38;;;4.78;;
9880;SDS011;4979;51.014;6.678;2022-12-24T08:21:44;22.92;;;4.97;;
9880;SDS011;4979;51.014;6.678;2022-12-24T08:24:10;19.55;;;3.95;;
9880;SDS011;4979;51.014;6.678;2022-12-24T08:26:35;26.73;;;5.03;;
9880;SDS011;4979;51.014;6.678;2022-12-24T08:29:02;19.42;;;4.57;;
9880;SDS011;4979;51.014;6.678;2022-12-24T08:31:28;24.52;;;4.25;;
9880;SDS011;4979;51.014;6.678;2022-12-24T08:33:54;19.75;;;3.97;;
9880;SDS011;4979;51.014;6.678;2022-12-24T08:36:20;20.00;;;4.82;;
9880;SDS011;4979;51.014;6.678;2022-12-24T08:38:46;23.10;;;5.13;;
9880;SDS011;4979;51.014;6.678;2022-12-24T08:41:11;21.77;;;3.55;;
9880;SDS011;4979;51.014;6.678;2022-12-24T08:43:37;16.33;;;3.90;;
9880;SDS011;4979;51.014;6.678;2022-12-24T08:46:03;25.45;;;4.90;;
9880;SDS011;4979;51.014;6.678;2022-12-24T08:48:30;16.48;;;4.10;;
9880;SDS011;4979;51.014;6.678;2022-12-24T08:50:56;21.15;;;4.57;;
9880;SDS011;4979;51.014;6.678;2022-12-24T08:53:22;25.48;;;3.95;;
9880;SDS011;4979;51.014;6.678;2022-12-24T08:55:47;20.67;;;4.10;;
9880;SDS011;4979;51.014;6.678;2022-12-24T08:58:13;22.50;;;5.05;;
9880;SDS011;4979;51.014;6.678;2022-12-24T09:00:38;18.08;;;4.07;;
9880;SDS011;4979;51.014;6.678;2022-12-24T09:03:04;16.98;;;4.07;;
9880;SDS011;4979;51.014;6.678;2022-12-24T09:05:30;17.75;;;4.20;;
9880;SDS011;4979;51.014;6.678;2022-12-24T09:07:55;19.90;;;4.38;;
9880;SDS011;4979;51.014;6.678;2022-12-24T09:10:21;22.27;;;5.28;;
9880;SDS011;4979;51.014;6.678;2022-12-24T09:12:47;20.63;;;4.47;;
9880;SDS011;4979;51.014;6.678;2022-12-24T09:15:13;26.85;;;4.78;;
9880;SDS011;4979;51.014;6.678;2022-12-24T09:17:39;21.08;;;4.97;;
9880;SDS011;4979;51.014;6.678;2022-12-24T09:20:04;21.40;;;5.03;;
9880;SDS011;4979;51.014;6.678;2022-12-24T09:22:33;17.10;;;4.63;;
9880;SDS011;4979;51.014;6.678;2022-12-24T09:25:02;25.02;;;4.70;;
9880;SDS011;4979;51.014;6.678;2022-12-24T09:27:30;27.00;;;4.82;;
9880;SDS011;4979;51.014;6.678;2022-12-24T09:29:56;17.75;;;5.10;;
9880;SDS011;4979;51.014;6.678;2022-12-24T09:32:21;25.67;;;4.95;;
9880;SDS011;4979;51.014;6.678;2022-12-24T09:34:47;31.00;;;5.57;;
9880;SDS011;4979;51.014;6.678;2022-12-24T09:37:12;22.15;;;4.40;;
9880;SDS011;4979;51.014;6.678;2022-12-24T09:39:38;20.10;;;4.22;;
9880;SDS011;4979;51.014;6.678;2022-12-24T09:42:12;23.50;;;5.50;;
9880;SDS011;4979;51.014;6.678;2022-12-24T09:47:49;22.65;;;3.60;;
9880;SDS011;4979;51.014;6.678;2022-12-24T09:52:52;17.13;;;5.05;;
9880;SDS011;4979;51.014;6.678;2022-12-24T09:55:31;25.13;;;5.28;;
9880;SDS011;4979;51.014;6.678;2022-12-24T09:58:01;26.73;;;5.95;;
9880;SDS011;4979;51.014;6.678;2022-12-24T10:00:31;20.73;;;4.47;;
9880;SDS011;4979;51.014;6.678;2022-12-24T10:03:00;14.35;;;3.88;;
9880;SDS011;4979;51.014;6.678;2022-12-24T10:11:05;24.40;;;5.82;;
9880;SDS011;4979;51.014;6.678;2022-12-24T10:13:45;21.90;;;4.85;;
9880;SDS011;4979;51.014;6.678;2022-12-24T10:16:17;26.35;;;4.90;;
9880;SDS011;4979;51.014;6.678;2022-12-24T10:18:58;21.88;;;4.60;;
9880;SDS011;4979;51.014;6.678;2022-12-24T10:24:20;28.20;;;5.22;;
9880;SDS011;4979;51.014;6.678;2022-12-24T10:26:56;30.38;;;5.45;;
9880;SDS011;4979;51.014;6.678;2022-12-24T10:29:33;21.30;;;4.22;;
9880;SDS011;4979;51.014;6.678;2022-12-24T10:34:34;23.05;;;4.57;;
9880;SDS011;4979;51.014;6.678;2022-12-24T10:37:04;28.08;;;5.43;;
9880;SDS011;4979;51.014;6.678;2022-12-24T10:39:31;23.42;;;4.68;;
9880;SDS011;4979;51.014;6.678;2022-12-24T10:41:56;18.55;;;4.22;;
9880;SDS011;4979;51.014;6.678;2022-12-24T10:44:27;34.45;;;4.68;;
9880;SDS011;4979;51.014;6.678;2022-12-24T10:46:56;15.75;;;4.03;;
9880;SDS011;4979;51.014;6.678;2022-12-24T10:49:26;27.80;;;5.72;;
9880;SDS011;4979;51.014;6.678;2022-12-24T10:52:04;25.30;;;4.25;;
9880;SDS011;4979;51.014;6.678;2022-12-24T10:54:34;27.25;;;5.45;;
9880;SDS011;4979;51.014;6.678;2022-12-24T10:57:03;20.95;;;4.57;;
9880;SDS011;4979;51.014;6.678;2022-12-24T10:59:33;21.65;;;5.05;;
9880;SDS011;4979;51.014;6.678;2022-12-24T11:04:58;16.75;;;4.55;;
9880;SDS011;4979;51.014;6.678;2022-12-24T11:07:26;23.75;;;4.90;;
9880;SDS011;4979;51.014;6.678;2022-12-24T11:09:56;23.40;;;5.07;;
9880;SDS011;4979;51.014;6.678;2022-12-24T11:12:30;26.27;;;4.68;;
9880;SDS011;4979;51.014;6.678;2022-12-24T11:17:31;18.50;;;4.40;;
9880;SDS011;4979;51.014;6.678;2022-12-24T11:19:57;25.00;;;4.78;;
9880;SDS011;4979;51.014;6.678;2022-12-24T11:22:25;14.20;;;4.00;;
9880;SDS011;4979;51.014;6.678;2022-12-24T11:24:57;24.38;;;4.95;;
9880;SDS011;4979;51.014;6.678;2022-12-24T11:27:30;28.05;;;5.25;;
9880;SDS011;4979;51.014;6.678;2022-12-24T11:35:07;24.95;;;5.55;;
9880;SDS011;4979;51.014;6.678;2022-12-24T11:37:39;19.15;;;4.65;;
9880;SDS011;4979;51.014;6.678;2022-12-24T11:40:05;31.60;;;4.88;;
9880;SDS011;4979;51.014;6.678;2022-12-24T11:42:45;33.05;;;4.97;;
9880;SDS011;4979;51.014;6.678;2022-12-24T11:47:51;24.48;;;4.63;;
9880;SDS011;4979;51.014;6.678;2022-12-24T11:50:19;17.08;;;4.38;;
9880;SDS011;4979;51.014;6.678;2022-12-24T11:52:50;22.63;;;5.22;;
9880;SDS011;4979;51.014;6.678;2022-12-24T11:55:44;22.70;;;4.30;;
9880;SDS011;4979;51.014;6.678;2022-12-24T11:58:18;15.15;;;4.10;;
9880;SDS011;4979;51.014;6.678;2022-12-24T12:01:13;17.10;;;4.25;;
9880;SDS011;4979;51.014;6.678;2022-12-24T12:03:50;24.63;;;5.38;;
9880;SDS011;4979;51.014;6.678;2022-12-24T12:06:23;20.10;;;4.25;;
9880;SDS011;4979;51.014;6.678;2022-12-24T12:09:04;16.60;;;5.82;;
9880;SDS011;4979;51.014;6.678;2022-12-24T12:11:34;22.92;;;4.57;;
9880;SDS011;4979;51.014;6.678;2022-12-24T12:14:04;19.30;;;3.90;;
9880;SDS011;4979;51.014;6.678;2022-12-24T12:16:46;27.60;;;7.03;;
9880;SDS011;4979;51.014;6.678;2022-12-24T12:19:24;27.35;;;5.05;;
9880;SDS011;4979;51.014;6.678;2022-12-24T12:21:52;29.38;;;5.57;;
9880;SDS011;4979;51.014;6.678;2022-12-24T12:24:25;34.17;;;4.07;;
9880;SDS011;4979;51.014;6.678;2022-12-24T12:27:32;23.60;;;4.72;;
9880;SDS011;4979;51.014;6.678;2022-12-24T12:29:58;22.95;;;4.72;;
9880;SDS011;4979;51.014;6.678;2022-12-24T12:32:35;15.60;;;3.85;;
9880;SDS011;4979;51.014;6.678;2022-12-24T12:35:22;28.90;;;4.88;;
9880;SDS011;4979;51.014;6.678;2022-12-24T12:38:04;23.88;;;5.28;;
9880;SDS011;4979;51.014;6.678;2022-12-24T12:43:14;29.90;;;4.22;;
9880;SDS011;4979;51.014;6.678;2022-12-24T12:48:42;20.60;;;5.28;;
9880;SDS011;4979;51.014;6.678;2022-12-24T12:51:27;24.15;;;4.80;;
9880;SDS011;4979;51.014;6.678;2022-12-24T12:54:10;20.35;;;4.53;;
9880;SDS011;4979;51.014;6.678;2022-12-24T12:56:37;16.95;;;4.72;;
9880;SDS011;4979;51.014;6.678;2022-12-24T13:19:10;20.10;;;4.43;;
9880;SDS011;4979;51.014;6.678;2022-12-24T13:21:55;17.25;;;3.45;;
9880;SDS011;4979;51.014;6.678;2022-12-24T13:24:22;23.65;;;4.70;;
9880;SDS011;4979;51.014;6.678;2022-12-24T13:27:00;20.77;;;4.75;;
9880;SDS011;4979;51.014;6.678;2022-12-24T13:34:47;14.45;;;3.63;;
9880;SDS011;4979;51.014;6.678;2022-12-24T13:37:18;18.60;;;4.20;;
9880;SDS011;4979;51.014;6.678;2022-12-24T13:50:35;19.23;;;4.53;;
9880;SDS011;4979;51.014;6.678;2022-12-24T13:53:04;17.08;;;3.58;;
9880;SDS011;4979;51.014;6.678;2022-12-24T13:55:48;26.35;;;4.65;;
9880;SDS011;4979;51.014;6.678;2022-12-24T13:58:16;17.23;;;4.20;;
9880;SDS011;4979;51.014;6.678;2022-12-24T14:00:51;24.33;;;4.43;;
9880;SDS011;4979;51.014;6.678;2022-12-24T14:03:22;32.10;;;5.22;;
9880;SDS011;4979;51.014;6.678;2022-12-24T14:06:29;18.75;;;3.22;;
9880;SDS011;4979;51.014;6.678;2022-12-24T14:08:55;23.60;;;3.90;;
9880;SDS011;4979;51.014;6.678;2022-12-24T14:12:13;25.42;;;4.53;;
9880;SDS011;4979;51.014;6.678;2022-12-24T14:14:27;17.98;;;4.47;;
9880;SDS011;4979;51.014;6.678;2022-12-24T14:16:58;23.13;;;3.53;;
9880;SDS011;4979;51.014;6.678;2022-12-24T14:19:59;19.40;;;3.55;;
9880;SDS011;4979;51.014;6.678;2022-12-24T14:22:33;25.20;;;5.03;;
9880;SDS011;4979;51.014;6.678;2022-12-24T14:25:20;17.98;;;4.25;;
9880;SDS011;4979;51.014;6.678;2022-12-24T14:28:06;23.17;;;4.15;;
9880;SDS011;4979;51.014;6.678;2022-12-24T14:30:41;19.90;;;4.53;;
9880;SDS011;4979;51.014;6.678;2022-12-24T14:33:25;24.25;;;5.10;;
9880;SDS011;4979;51.014;6.678;2022-12-24T14:35:52;24.10;;;4.50;;
9880;SDS011;4979;51.014;6.678;2022-12-24T14:38:18;19.90;;;4.68;;
9880;SDS011;4979;51.014;6.678;2022-12-24T14:40:56;26.55;;;3.95;;
9880;SDS011;4979;51.014;6.678;2022-12-24T14:43:52;19.20;;;4.25;;
9880;SDS011;4979;51.014;6.678;2022-12-24T14:46:25;22.48;;;4.25;;
9880;SDS011;4979;51.014;6.678;2022-12-24T14:49:10;20.95;;;4.43;;
9880;SDS011;4979;51.014;6.678;2022-12-24T14:59:54;19.65;;;4.05;;
9880;SDS011;4979;51.014;6.678;2022-12-24T15:05:07;21.10;;;4.28;;
9880;SDS011;4979;51.014;6.678;2022-12-24T15:07:36;19.98;;;4.25;;
9880;SDS011;4979;51.014;6.678;2022-12-24T15:10:17;24.05;;;4.65;;
9880;SDS011;4979;51.014;6.678;2022-12-24T15:13:06;20.05;;;4.95;;
9880;SDS011;4979;51.014;6.678;2022-12-24T15:15:51;18.70;;;4.07;;
9880;SDS011;4979;51.014;6.678;2022-12-24T15:18:21;24.80;;;4.88;;
9880;SDS011;4979;51.014;6.678;2022-12-24T15:20:51;17.88;;;4.22;;
9880;SDS011;4979;51.014;6.678;2022-12-24T15:23:20;17.33;;;4.07;;
9880;SDS011;4979;51.014;6.678;2022-12-24T15:26:13;28.92;;;4.90;;
9880;SDS011;4979;51.014;6.678;2022-12-24T15:28:43;16.40;;;4.70;;
9880;SDS011;4979;51.014;6.678;2022-12-24T15:31:15;21.38;;;4.35;;
9880;SDS011;4979;51.014;6.678;2022-12-24T15:33:44;21.60;;;4.82;;
9880;SDS011;4979;51.014;6.678;2022-12-24T15:36:15;22.50;;;5.22;;
9880;SDS011;4979;51.014;6.678;2022-12-24T15:38:50;22.67;;;5.20;;
9880;SDS011;4979;51.014;6.678;2022-12-24T15:41:18;22.73;;;4.88;;
9880;SDS011;4979;51.014;6.678;2022-12-24T15:43:45;24.52;;;4.88;;
9880;SDS011;4979;51.014;6.678;2022-12-24T15:46:19;20.73;;;4.88;;
9880;SDS011;4979;51.014;6.678;2022-12-24T15:48:45;33.75;;;6.65;;
9880;SDS011;4979;51.014;6.678;2022-12-24T15:51:18;25.98;;;4.63;;
9880;SDS011;4979;51.014;6.678;2022-12-24T15:53:47;21.27;;;6.10;;
9880;SDS011;4979;51.014;6.678;2022-12-24T16:01:42;16.67;;;4.43;;
9880;SDS011;4979;51.014;6.678;2022-12-24T16:04:12;27.38;;;5.78;;
9880;SDS011;4979;51.014;6.678;2022-12-24T16:09:41;28.08;;;5.75;;
9880;SDS011;4979;51.014;6.678;2022-12-24T16:12:11;26.25;;;5.93;;
9880;SDS011;4979;51.014;6.678;2022-12-24T16:14:49;27.58;;;5.90;;
9880;SDS011;4979;51.014;6.678;2022-12-24T16:17:22;32.50;;;8.18;;
9880;SDS011;4979;51.014;6.678;2022-12-24T16:19:50;42.53;;;11.32;;
9880;SDS011;4979;51.014;6.678;2022-12-24T16:22:19;33.15;;;10.38;;
9880;SDS011;4979;51.014;6.678;2022-12-24T16:24:56;30.52;;;9.10;;
9880;SDS011;4979;51.014;6.678;2022-12-24T16:27:27;53.53;;;16.42;;
9880;SDS011;4979;51.014;6.678;2022-12-24T16:29:53;42.88;;;12.20;;
9880;SDS011;4979;51.014;6.678;2022-12-24T16:32:26;43.10;;;14.77;;
9880;SDS011;4979;51.014;6.678;2022-12-24T16:34:57;45.70;;;14.52;;
9880;SDS011;4979;51.014;6.678;2022-12-24T16:37:23;49.92;;;14.32;;
9880;SDS011;4979;51.014;6.678;2022-12-24T16:39:49;39.58;;;13.27;;
9880;SDS011;4979;51.014;6.678;2022-12-24T16:42:15;38.60;;;12.80;;
9880;SDS011;4979;51.014;6.678;2022-12-24T16:44:59;41.13;;;13.48;;
9880;SDS011;4979;51.014;6.678;2022-12-24T16:47:25;40.85;;;11.23;;
9880;SDS011;4979;51.014;6.678;2022-12-24T16:49:55;43.72;;;10.13;;
9880;SDS011;4979;51.014;6.678;2022-12-24T16:52:25;38.08;;;10.50;;
9880;SDS011;4979;51.014;6.678;2022-12-24T16:54:55;51.47;;;16.73;;
9880;SDS011;4979;51.014;6.678;2022-12-24T16:57:21;50.85;;;13.85;;
9880;SDS011;4979;51.014;6.678;2022-12-24T16:59:48;41.58;;;11.65;;
9880;SDS011;4979;51.014;6.678;2022-12-24T17:02:15;46.05;;;13.80;;
9880;SDS011;4979;51.014;6.678;2022-12-24T17:04:42;56.13;;;14.98;;
9880;SDS011;4979;51.014;6.678;2022-12-24T17:07:11;35.67;;;9.27;;
9880;SDS011;4979;51.014;6.678;2022-12-24T17:09:38;42.60;;;8.95;;
9880;SDS011;4979;51.014;6.678;2022-12-24T17:12:04;31.33;;;10.63;;
9880;SDS011;4979;51.014;6.678;2022-12-24T17:14:30;35.08;;;10.55;;
9880;SDS011;4979;51.014;6.678;2022-12-24T17:16:55;25.05;;;9.27;;